LGL1112 LIML-EDDL
Flight info
| Callsign | LGL1112 |
|---|---|
| Flight time | 1h 15m |
| Altitude | 32000 |
| Route | OMETO DCT AOSTA DCT ORSUD DCT MOLUS DCT GILIR DCT PENDU DCT IXILU DCT GIVOR DCT SORAL DCT IBERA DCT DIK N853 ARCKY T853 NVO T857 BIKMU BIKMU1A |
| Aircraft | B38M/M-SDE1FGHILORVWXY/HB1 |
Departure
| Time | 2026-05-05 14:10 |
|---|---|
| Airport | Milano Linate Airport (LIML) |
Arrival
| Time | 2026-05-05 15:26 |
|---|---|
| Airport | Düsseldorf Airport (EDDL) |
| Time | Latitude | Longitude | Altitude | Speed | Heading |
|---|---|---|---|---|---|
| 2026-05-05 13:20 | 45.45967 | 9.28033 | 365 ft | 0 kts | 2° |
| 2026-05-05 14:01 | 45.45963 | 9.28033 | 365 ft | 3 kts | 11° |
| 2026-05-05 14:01 | 45.45952 | 9.28033 | 369 ft | 3 kts | 1° |
| 2026-05-05 14:01 | 45.45929 | 9.28028 | 368 ft | 3 kts | 24° |
| 2026-05-05 14:02 | 45.45911 | 9.28008 | 365 ft | 3 kts | 61° |
| 2026-05-05 14:02 | 45.45907 | 9.27985 | 370 ft | 1 kts | 91° |
| 2026-05-05 14:02 | 45.45907 | 9.27979 | 365 ft | 0 kts | 91° |
| 2026-05-05 14:04 | 45.45907 | 9.27980 | 365 ft | 1 kts | 91° |
| 2026-05-05 14:05 | 45.45906 | 9.27982 | 365 ft | 0 kts | 107° |
| 2026-05-05 14:05 | 45.45895 | 9.27986 | 371 ft | 5 kts | 173° |
| 2026-05-05 14:05 | 45.45817 | 9.27985 | 365 ft | 18 kts | 180° |
| 2026-05-05 14:05 | 45.45659 | 9.27985 | 371 ft | 25 kts | 180° |
| 2026-05-05 14:06 | 45.45474 | 9.27980 | 364 ft | 28 kts | 180° |
| 2026-05-05 14:06 | 45.45285 | 9.27914 | 365 ft | 29 kts | 204° |
| 2026-05-05 14:06 | 45.45084 | 9.27882 | 362 ft | 30 kts | 174° |
| 2026-05-05 14:06 | 45.44871 | 9.27925 | 363 ft | 32 kts | 164° |
| 2026-05-05 14:07 | 45.44661 | 9.27961 | 362 ft | 28 kts | 176° |
| 2026-05-05 14:07 | 45.44466 | 9.27983 | 363 ft | 29 kts | 175° |
| 2026-05-05 14:07 | 45.44260 | 9.28006 | 360 ft | 31 kts | 175° |
| 2026-05-05 14:07 | 45.44041 | 9.28029 | 362 ft | 32 kts | 176° |
| 2026-05-05 14:08 | 45.43813 | 9.28052 | 361 ft | 34 kts | 176° |
| 2026-05-05 14:08 | 45.43605 | 9.28077 | 359 ft | 30 kts | 175° |
| 2026-05-05 14:08 | 45.43478 | 9.28080 | 353 ft | 12 kts | 194° |
| 2026-05-05 14:08 | 45.43445 | 9.27991 | 351 ft | 11 kts | 265° |
| 2026-05-05 14:09 | 45.43440 | 9.27876 | 355 ft | 11 kts | 272° |
| 2026-05-05 14:09 | 45.43478 | 9.27820 | 360 ft | 9 kts | 349° |
| 2026-05-05 14:09 | 45.43487 | 9.27819 | 353 ft | 2 kts | 354° |
| 2026-05-05 14:09 | 45.43544 | 9.27811 | 352 ft | 18 kts | 356° |
| 2026-05-05 14:10 | 45.43935 | 9.27770 | 352 ft | 96 kts | 355° |
| 2026-05-05 14:10 | 45.44838 | 9.27666 | 364 ft | 161 kts | 354° |
| 2026-05-05 14:10 | 45.46071 | 9.27527 | 751 ft | 188 kts | 355° |
| 2026-05-05 14:10 | 45.47382 | 9.27273 | 1623 ft | 193 kts | 342° |
| 2026-05-05 14:11 | 45.48658 | 9.26619 | 2454 ft | 198 kts | 337° |
| 2026-05-05 14:11 | 45.50007 | 9.25830 | 2903 ft | 223 kts | 337° |
| 2026-05-05 14:11 | 45.51512 | 9.24983 | 3472 ft | 243 kts | 339° |
| 2026-05-05 14:11 | 45.53134 | 9.24142 | 4209 ft | 255 kts | 340° |
| 2026-05-05 14:12 | 45.54859 | 9.23262 | 4848 ft | 271 kts | 340° |
| 2026-05-05 14:12 | 45.56646 | 9.22378 | 5767 ft | 273 kts | 341° |
| 2026-05-05 14:12 | 45.58460 | 9.21480 | 6610 ft | 279 kts | 341° |
| 2026-05-05 14:12 | 45.60289 | 9.20498 | 7481 ft | 283 kts | 332° |
| 2026-05-05 14:13 | 45.61805 | 9.18717 | 8333 ft | 286 kts | 306° |
| 2026-05-05 14:13 | 45.62695 | 9.16175 | 9130 ft | 289 kts | 283° |
| 2026-05-05 14:13 | 45.63107 | 9.13394 | 9941 ft | 294 kts | 280° |
| 2026-05-05 14:13 | 45.63513 | 9.10498 | 10595 ft | 305 kts | 279° |
| 2026-05-05 14:14 | 45.63922 | 9.07435 | 11028 ft | 321 kts | 278° |
| 2026-05-05 14:14 | 45.64336 | 9.04203 | 11635 ft | 330 kts | 277° |
| 2026-05-05 14:14 | 45.64695 | 9.00944 | 12538 ft | 333 kts | 275° |
| 2026-05-05 14:14 | 45.65000 | 8.97719 | 13384 ft | 333 kts | 275° |
| 2026-05-05 14:15 | 45.65316 | 8.94415 | 14114 ft | 337 kts | 275° |
| 2026-05-05 14:15 | 45.65638 | 8.91093 | 14889 ft | 338 kts | 275° |
| 2026-05-05 14:15 | 45.65959 | 8.87734 | 15529 ft | 344 kts | 275° |
| 2026-05-05 14:15 | 45.66283 | 8.84328 | 16232 ft | 347 kts | 275° |
| 2026-05-05 14:16 | 45.66611 | 8.80896 | 16909 ft | 350 kts | 275° |
| 2026-05-05 14:16 | 45.66946 | 8.77382 | 17565 ft | 354 kts | 275° |
| 2026-05-05 14:16 | 45.67277 | 8.73886 | 18213 ft | 357 kts | 275° |
| 2026-05-05 14:16 | 45.67606 | 8.70405 | 18816 ft | 360 kts | 275° |
| 2026-05-05 14:17 | 45.67941 | 8.66842 | 19400 ft | 363 kts | 274° |
| 2026-05-05 14:17 | 45.68279 | 8.63248 | 19956 ft | 366 kts | 274° |
| 2026-05-05 14:17 | 45.68618 | 8.59622 | 20492 ft | 369 kts | 274° |
| 2026-05-05 14:17 | 45.68958 | 8.55971 | 21044 ft | 372 kts | 274° |
| 2026-05-05 14:18 | 45.69299 | 8.52298 | 21585 ft | 374 kts | 274° |
| 2026-05-05 14:18 | 45.69643 | 8.48586 | 22105 ft | 378 kts | 274° |
| 2026-05-05 14:18 | 45.69988 | 8.44845 | 22632 ft | 380 kts | 274° |
| 2026-05-05 14:18 | 45.70335 | 8.41082 | 23136 ft | 384 kts | 274° |
| 2026-05-05 14:19 | 45.70684 | 8.37285 | 23639 ft | 386 kts | 274° |
| 2026-05-05 14:19 | 45.71034 | 8.33465 | 24143 ft | 389 kts | 273° |
| 2026-05-05 14:19 | 45.71267 | 8.30917 | 24454 ft | 391 kts | 273° |
| 2026-05-05 14:19 | 45.71620 | 8.27048 | 24926 ft | 394 kts | 274° |
| 2026-05-05 14:20 | 45.71974 | 8.23148 | 25357 ft | 397 kts | 274° |
| 2026-05-05 14:20 | 45.72330 | 8.19207 | 25819 ft | 400 kts | 274° |
| 2026-05-05 14:20 | 45.72832 | 8.15273 | 26182 ft | 408 kts | 285° |
| 2026-05-05 14:20 | 45.74167 | 8.11658 | 26675 ft | 418 kts | 304° |
| 2026-05-05 14:21 | 45.76218 | 8.08657 | 27040 ft | 427 kts | 319° |
| 2026-05-05 14:21 | 45.78774 | 8.06428 | 27439 ft | 434 kts | 334° |
| 2026-05-05 14:21 | 45.81625 | 8.04948 | 27852 ft | 438 kts | 337° |
| 2026-05-05 14:21 | 45.84484 | 8.03401 | 28202 ft | 441 kts | 336° |
| 2026-05-05 14:22 | 45.87355 | 8.01824 | 28584 ft | 442 kts | 336° |
| 2026-05-05 14:22 | 45.90249 | 8.00222 | 28720 ft | 451 kts | 336° |
| 2026-05-05 14:22 | 45.93213 | 7.98553 | 28678 ft | 464 kts | 336° |
| 2026-05-05 14:22 | 45.96252 | 7.96842 | 28725 ft | 472 kts | 336° |
| 2026-05-05 14:23 | 45.99319 | 7.95134 | 29163 ft | 473 kts | 337° |
| 2026-05-05 14:23 | 46.02397 | 7.93424 | 29452 ft | 476 kts | 337° |
| 2026-05-05 14:23 | 46.05493 | 7.91702 | 29796 ft | 478 kts | 337° |
| 2026-05-05 14:23 | 46.08597 | 7.89975 | 30110 ft | 479 kts | 337° |
| 2026-05-05 14:24 | 46.11713 | 7.88238 | 30417 ft | 481 kts | 337° |
| 2026-05-05 14:24 | 46.14844 | 7.86492 | 30719 ft | 483 kts | 337° |
| 2026-05-05 14:24 | 46.17980 | 7.84740 | 30986 ft | 485 kts | 337° |
| 2026-05-05 14:24 | 46.21136 | 7.82977 | 31240 ft | 487 kts | 337° |
| 2026-05-05 14:25 | 46.24295 | 7.81211 | 31619 ft | 485 kts | 337° |
| 2026-05-05 14:25 | 46.27434 | 7.79463 | 31932 ft | 483 kts | 337° |
| 2026-05-05 14:25 | 46.33658 | 7.75979 | 31957 ft | 478 kts | 336° |
| 2026-05-05 14:26 | 46.39858 | 7.72492 | 31950 ft | 478 kts | 336° |
| 2026-05-05 14:26 | 46.46065 | 7.68990 | 31938 ft | 478 kts | 336° |
| 2026-05-05 14:27 | 46.52236 | 7.65500 | 31931 ft | 479 kts | 336° |
| 2026-05-05 14:27 | 46.58479 | 7.61961 | 31936 ft | 478 kts | 336° |
| 2026-05-05 14:28 | 46.64684 | 7.58435 | 31936 ft | 479 kts | 336° |
| 2026-05-05 14:28 | 46.70851 | 7.54922 | 31948 ft | 479 kts | 336° |
| 2026-05-05 14:29 | 46.77058 | 7.51377 | 31948 ft | 480 kts | 336° |
| 2026-05-05 14:29 | 46.83278 | 7.47816 | 31936 ft | 479 kts | 335° |
| 2026-05-05 14:30 | 46.89488 | 7.44252 | 31936 ft | 480 kts | 335° |
| 2026-05-05 14:30 | 46.95702 | 7.40676 | 31933 ft | 480 kts | 335° |
| 2026-05-05 14:31 | 47.01909 | 7.37096 | 31941 ft | 480 kts | 335° |
| 2026-05-05 14:31 | 47.08131 | 7.33498 | 31948 ft | 480 kts | 335° |
| 2026-05-05 14:32 | 47.14345 | 7.29896 | 31936 ft | 480 kts | 335° |
| 2026-05-05 14:32 | 47.20561 | 7.26283 | 31937 ft | 480 kts | 335° |
| 2026-05-05 14:33 | 47.26773 | 7.22663 | 31946 ft | 480 kts | 335° |
| 2026-05-05 14:33 | 47.32985 | 7.19035 | 31929 ft | 480 kts | 335° |
| 2026-05-05 14:34 | 47.39199 | 7.15396 | 31926 ft | 480 kts | 335° |
| 2026-05-05 14:34 | 47.45404 | 7.11753 | 31923 ft | 480 kts | 334° |
| 2026-05-05 14:35 | 47.51576 | 7.08121 | 31920 ft | 480 kts | 334° |
| 2026-05-05 14:35 | 47.57786 | 7.04456 | 31924 ft | 480 kts | 334° |
| 2026-05-05 14:36 | 47.63994 | 7.00783 | 31919 ft | 481 kts | 334° |
| 2026-05-05 14:36 | 47.70206 | 6.97099 | 31916 ft | 481 kts | 334° |
| 2026-05-05 14:37 | 47.76421 | 6.93403 | 31919 ft | 481 kts | 334° |
| 2026-05-05 14:37 | 47.82632 | 6.89700 | 31923 ft | 481 kts | 334° |
| 2026-05-05 14:38 | 47.88849 | 6.85984 | 31916 ft | 481 kts | 334° |
| 2026-05-05 14:38 | 47.95069 | 6.82256 | 31915 ft | 481 kts | 334° |
| 2026-05-05 14:39 | 48.01281 | 6.78524 | 31917 ft | 482 kts | 334° |
| 2026-05-05 14:39 | 48.07485 | 6.74786 | 31921 ft | 480 kts | 333° |
| 2026-05-05 14:40 | 48.13675 | 6.71047 | 31907 ft | 480 kts | 333° |
| 2026-05-05 14:40 | 48.19867 | 6.67298 | 31911 ft | 480 kts | 333° |
| 2026-05-05 14:41 | 48.26021 | 6.63562 | 31914 ft | 481 kts | 333° |
| 2026-05-05 14:41 | 48.32225 | 6.59785 | 31917 ft | 481 kts | 333° |
| 2026-05-05 14:42 | 48.38429 | 6.55999 | 31914 ft | 481 kts | 333° |
| 2026-05-05 14:42 | 48.44629 | 6.52205 | 31911 ft | 481 kts | 333° |
| 2026-05-05 14:43 | 48.50824 | 6.48403 | 31919 ft | 480 kts | 333° |
| 2026-05-05 14:43 | 48.57018 | 6.44593 | 31918 ft | 481 kts | 333° |
| 2026-05-05 14:44 | 48.63207 | 6.40796 | 31918 ft | 481 kts | 335° |
| 2026-05-05 14:44 | 48.66492 | 6.39643 | 31899 ft | 489 kts | 352° |
| 2026-05-05 14:44 | 48.69907 | 6.39686 | 31929 ft | 494 kts | 360° |
| 2026-05-05 14:45 | 48.76788 | 6.40265 | 31913 ft | 495 kts | 0° |
| 2026-05-05 14:45 | 48.83665 | 6.40942 | 31914 ft | 495 kts | 0° |
| 2026-05-05 14:46 | 48.90534 | 6.41639 | 31916 ft | 495 kts | 0° |
| 2026-05-05 14:46 | 48.97405 | 6.42338 | 31917 ft | 495 kts | 0° |
| 2026-05-05 14:47 | 49.04269 | 6.43040 | 31920 ft | 494 kts | 0° |
| 2026-05-05 14:47 | 49.11122 | 6.43457 | 31897 ft | 488 kts | 349° |
| 2026-05-05 14:48 | 49.17658 | 6.41131 | 31907 ft | 482 kts | 340° |
| 2026-05-05 14:48 | 49.24141 | 6.38530 | 31914 ft | 482 kts | 340° |
| 2026-05-05 14:49 | 49.30615 | 6.35869 | 31910 ft | 481 kts | 340° |
| 2026-05-05 14:49 | 49.37080 | 6.33201 | 31905 ft | 481 kts | 340° |
| 2026-05-05 14:50 | 49.43548 | 6.30524 | 31906 ft | 482 kts | 339° |
| 2026-05-05 14:50 | 49.50011 | 6.27845 | 31903 ft | 481 kts | 340° |
| 2026-05-05 14:51 | 49.56482 | 6.25199 | 31907 ft | 481 kts | 339° |
| 2026-05-05 14:51 | 49.62960 | 6.22541 | 31912 ft | 481 kts | 339° |
| 2026-05-05 14:52 | 49.69432 | 6.19879 | 31815 ft | 480 kts | 339° |
| 2026-05-05 14:52 | 49.72639 | 6.18557 | 31125 ft | 477 kts | 339° |
| 2026-05-05 14:52 | 49.75861 | 6.17227 | 30150 ft | 482 kts | 340° |
| 2026-05-05 14:53 | 49.79111 | 6.15884 | 29224 ft | 485 kts | 340° |
| 2026-05-05 14:53 | 49.82371 | 6.14535 | 28362 ft | 485 kts | 340° |
| 2026-05-05 14:53 | 49.85661 | 6.13303 | 27305 ft | 492 kts | 347° |
| 2026-05-05 14:53 | 49.89130 | 6.13062 | 26086 ft | 504 kts | 357° |
| 2026-05-05 14:54 | 49.92605 | 6.13050 | 25423 ft | 497 kts | 357° |
| 2026-05-05 14:54 | 49.96038 | 6.13050 | 24740 ft | 490 kts | 358° |
| 2026-05-05 14:54 | 49.99436 | 6.13060 | 23945 ft | 486 kts | 358° |
| 2026-05-05 14:54 | 50.02797 | 6.13074 | 23246 ft | 480 kts | 358° |
| 2026-05-05 14:55 | 50.06114 | 6.13090 | 22539 ft | 474 kts | 358° |
| 2026-05-05 14:55 | 50.09403 | 6.13107 | 21812 ft | 471 kts | 358° |
| 2026-05-05 14:55 | 50.12653 | 6.13125 | 21140 ft | 465 kts | 358° |
| 2026-05-05 14:55 | 50.15888 | 6.13143 | 20424 ft | 462 kts | 358° |
| 2026-05-05 14:56 | 50.19073 | 6.13161 | 19769 ft | 456 kts | 358° |
| 2026-05-05 14:56 | 50.22259 | 6.13179 | 18926 ft | 456 kts | 358° |
| 2026-05-05 14:56 | 50.25408 | 6.13197 | 18340 ft | 449 kts | 358° |
| 2026-05-05 14:56 | 50.28505 | 6.13570 | 17757 ft | 445 kts | 9° |
| 2026-05-05 14:57 | 50.31440 | 6.15148 | 16881 ft | 449 kts | 27° |
| 2026-05-05 14:57 | 50.34088 | 6.17655 | 16398 ft | 441 kts | 31° |
| 2026-05-05 14:57 | 50.36631 | 6.20177 | 15544 ft | 439 kts | 32° |
| 2026-05-05 14:57 | 50.39204 | 6.22780 | 14928 ft | 437 kts | 33° |
| 2026-05-05 14:58 | 50.41733 | 6.25366 | 14445 ft | 431 kts | 33° |
| 2026-05-05 14:58 | 50.44219 | 6.27922 | 14023 ft | 424 kts | 33° |
| 2026-05-05 14:58 | 50.46689 | 6.30471 | 13281 ft | 426 kts | 33° |
| 2026-05-05 14:58 | 50.49159 | 6.32994 | 12862 ft | 420 kts | 31° |
| 2026-05-05 14:59 | 50.51660 | 6.35271 | 12604 ft | 411 kts | 30° |
| 2026-05-05 14:59 | 50.54105 | 6.37499 | 12386 ft | 399 kts | 30° |
| 2026-05-05 14:59 | 50.56462 | 6.39662 | 11740 ft | 387 kts | 30° |
| 2026-05-05 14:59 | 50.58754 | 6.41777 | 11181 ft | 375 kts | 30° |
| 2026-05-05 15:00 | 50.60936 | 6.43795 | 10980 ft | 352 kts | 30° |
| 2026-05-05 15:00 | 50.62332 | 6.45087 | 10880 ft | 338 kts | 30° |
| 2026-05-05 15:00 | 50.64927 | 6.47494 | 10666 ft | 317 kts | 30° |
| 2026-05-05 15:00 | 50.66798 | 6.49232 | 10522 ft | 308 kts | 30° |
| 2026-05-05 15:01 | 50.68623 | 6.50927 | 10365 ft | 301 kts | 30° |
| 2026-05-05 15:01 | 50.70401 | 6.52581 | 10207 ft | 293 kts | 30° |
| 2026-05-05 15:01 | 50.72132 | 6.54193 | 10072 ft | 285 kts | 31° |
| 2026-05-05 15:01 | 50.73820 | 6.55767 | 9899 ft | 279 kts | 31° |
| 2026-05-05 15:02 | 50.75505 | 6.57338 | 9613 ft | 285 kts | 31° |
| 2026-05-05 15:02 | 50.77229 | 6.58949 | 9291 ft | 290 kts | 31° |
| 2026-05-05 15:02 | 50.78971 | 6.60575 | 8967 ft | 291 kts | 31° |
| 2026-05-05 15:02 | 50.80715 | 6.62205 | 8647 ft | 291 kts | 31° |
| 2026-05-05 15:03 | 50.82527 | 6.63612 | 8283 ft | 290 kts | 14° |
| 2026-05-05 15:03 | 50.84515 | 6.64109 | 7949 ft | 289 kts | 7° |
| 2026-05-05 15:03 | 50.86501 | 6.64544 | 7659 ft | 287 kts | 7° |
| 2026-05-05 15:03 | 50.88472 | 6.64972 | 7350 ft | 285 kts | 7° |
| 2026-05-05 15:04 | 50.90434 | 6.65395 | 7039 ft | 284 kts | 7° |
| 2026-05-05 15:04 | 50.92388 | 6.65815 | 6722 ft | 282 kts | 7° |
| 2026-05-05 15:04 | 50.94329 | 6.66231 | 6417 ft | 281 kts | 7° |
| 2026-05-05 15:04 | 50.96261 | 6.66646 | 6121 ft | 279 kts | 7° |
| 2026-05-05 15:05 | 51.00099 | 6.67470 | 5500 ft | 277 kts | 7° |
| 2026-05-05 15:05 | 51.02006 | 6.67876 | 5207 ft | 275 kts | 6° |
| 2026-05-05 15:05 | 51.03269 | 6.67942 | 5030 ft | 273 kts | 356° |
| 2026-05-05 15:06 | 51.05152 | 6.67757 | 4792 ft | 270 kts | 356° |
| 2026-05-05 15:06 | 51.07009 | 6.67582 | 4600 ft | 263 kts | 356° |
| 2026-05-05 15:06 | 51.08806 | 6.67420 | 4488 ft | 254 kts | 355° |
| 2026-05-05 15:06 | 51.10455 | 6.66659 | 4328 ft | 243 kts | 327° |
| 2026-05-05 15:07 | 51.11650 | 6.64870 | 4236 ft | 231 kts | 308° |
| 2026-05-05 15:07 | 51.12666 | 6.62947 | 4093 ft | 223 kts | 309° |
| 2026-05-05 15:07 | 51.13642 | 6.61078 | 3957 ft | 216 kts | 309° |
| 2026-05-05 15:07 | 51.14575 | 6.59271 | 3838 ft | 206 kts | 308° |
| 2026-05-05 15:08 | 51.15477 | 6.57514 | 3524 ft | 206 kts | 310° |
| 2026-05-05 15:08 | 51.16646 | 6.56212 | 3219 ft | 208 kts | 342° |
| 2026-05-05 15:08 | 51.18056 | 6.56117 | 3010 ft | 201 kts | 15° |
| 2026-05-05 15:08 | 51.19224 | 6.57195 | 2815 ft | 192 kts | 44° |
| 2026-05-05 15:09 | 51.20098 | 6.58745 | 2609 ft | 185 kts | 52° |
| 2026-05-05 15:09 | 51.20876 | 6.60342 | 2393 ft | 180 kts | 53° |
| 2026-05-05 15:09 | 51.21622 | 6.61906 | 2175 ft | 175 kts | 52° |
| 2026-05-05 15:09 | 51.22352 | 6.63438 | 1967 ft | 173 kts | 52° |
| 2026-05-05 15:10 | 51.23075 | 6.64952 | 1777 ft | 170 kts | 52° |
| 2026-05-05 15:10 | 51.23777 | 6.66422 | 1557 ft | 164 kts | 52° |
| 2026-05-05 15:10 | 51.24446 | 6.67827 | 1324 ft | 155 kts | 52° |
| 2026-05-05 15:10 | 51.25094 | 6.69189 | 1115 ft | 153 kts | 51° |
| 2026-05-05 15:11 | 51.25735 | 6.70540 | 886 ft | 153 kts | 52° |
| 2026-05-05 15:11 | 51.26364 | 6.71872 | 733 ft | 144 kts | 50° |
| 2026-05-05 15:11 | 51.27010 | 6.73124 | 547 ft | 152 kts | 50° |
| 2026-05-05 15:11 | 51.27633 | 6.74513 | 413 ft | 155 kts | 53° |
| 2026-05-05 15:12 | 51.28315 | 6.75950 | 735 ft | 167 kts | 51° |
| 2026-05-05 15:12 | 51.29021 | 6.77413 | 1513 ft | 172 kts | 51° |
| 2026-05-05 15:12 | 51.29792 | 6.79045 | 2151 ft | 197 kts | 52° |
| 2026-05-05 15:12 | 51.30632 | 6.80820 | 3163 ft | 208 kts | 53° |
| 2026-05-05 15:13 | 51.31572 | 6.82847 | 3682 ft | 251 kts | 53° |
| 2026-05-05 15:13 | 51.32740 | 6.85353 | 3754 ft | 311 kts | 53° |
| 2026-05-05 15:13 | 51.34134 | 6.88328 | 3790 ft | 327 kts | 52° |
| 2026-05-05 15:13 | 51.35743 | 6.90522 | 4061 ft | 289 kts | 25° |
| 2026-05-05 15:14 | 51.37582 | 6.91066 | 4062 ft | 263 kts | 352° |
| 2026-05-05 15:14 | 51.39141 | 6.89951 | 4045 ft | 237 kts | 314° |
| 2026-05-05 15:14 | 51.39875 | 6.87693 | 4037 ft | 231 kts | 275° |
| 2026-05-05 15:14 | 51.39682 | 6.85166 | 4079 ft | 232 kts | 252° |
| 2026-05-05 15:15 | 51.39050 | 6.82805 | 4056 ft | 232 kts | 236° |
| 2026-05-05 15:15 | 51.37893 | 6.81056 | 4022 ft | 229 kts | 205° |
| 2026-05-05 15:15 | 51.36382 | 6.80254 | 4074 ft | 231 kts | 199° |
| 2026-05-05 15:15 | 51.34875 | 6.79351 | 4071 ft | 232 kts | 201° |
| 2026-05-05 15:16 | 51.33366 | 6.78431 | 4069 ft | 232 kts | 201° |
| 2026-05-05 15:16 | 51.31856 | 6.77514 | 4062 ft | 231 kts | 201° |
| 2026-05-05 15:16 | 51.30348 | 6.76600 | 4058 ft | 232 kts | 201° |
| 2026-05-05 15:16 | 51.28840 | 6.75687 | 4056 ft | 232 kts | 201° |
| 2026-05-05 15:17 | 51.27331 | 6.74761 | 4056 ft | 232 kts | 201° |
| 2026-05-05 15:17 | 51.25852 | 6.73649 | 4023 ft | 243 kts | 219° |
| 2026-05-05 15:17 | 51.24914 | 6.71381 | 4021 ft | 255 kts | 256° |
| 2026-05-05 15:17 | 51.24760 | 6.68542 | 4053 ft | 261 kts | 265° |
| 2026-05-05 15:18 | 51.24546 | 6.65642 | 4045 ft | 265 kts | 262° |
| 2026-05-05 15:18 | 51.24287 | 6.62742 | 4047 ft | 260 kts | 261° |
| 2026-05-05 15:18 | 51.24024 | 6.59973 | 4050 ft | 246 kts | 261° |
| 2026-05-05 15:18 | 51.23768 | 6.57353 | 4048 ft | 232 kts | 260° |
| 2026-05-05 15:19 | 51.23519 | 6.54883 | 4000 ft | 222 kts | 260° |
| 2026-05-05 15:19 | 51.23269 | 6.52452 | 3723 ft | 221 kts | 260° |
| 2026-05-05 15:19 | 51.23019 | 6.50036 | 3435 ft | 221 kts | 260° |
| 2026-05-05 15:19 | 51.22671 | 6.47663 | 3165 ft | 219 kts | 247° |
| 2026-05-05 15:20 | 51.21814 | 6.45718 | 3020 ft | 216 kts | 217° |
| 2026-05-05 15:20 | 51.20459 | 6.44735 | 3029 ft | 217 kts | 188° |
| 2026-05-05 15:20 | 51.18962 | 6.44944 | 3104 ft | 219 kts | 159° |
| 2026-05-05 15:20 | 51.17744 | 6.46224 | 3068 ft | 209 kts | 131° |
| 2026-05-05 15:21 | 51.17063 | 6.48180 | 3028 ft | 198 kts | 105° |
| 2026-05-05 15:21 | 51.16981 | 6.50346 | 3020 ft | 198 kts | 80° |
| 2026-05-05 15:21 | 51.17413 | 6.52427 | 3053 ft | 199 kts | 64° |
| 2026-05-05 15:21 | 51.18100 | 6.54338 | 3126 ft | 200 kts | 56° |
| 2026-05-05 15:22 | 51.18901 | 6.56158 | 2972 ft | 201 kts | 54° |
| 2026-05-05 15:22 | 51.19723 | 6.57920 | 2748 ft | 195 kts | 53° |
| 2026-05-05 15:22 | 51.20535 | 6.59627 | 2508 ft | 191 kts | 53° |
| 2026-05-05 15:22 | 51.21329 | 6.61291 | 2276 ft | 186 kts | 52° |
| 2026-05-05 15:23 | 51.22105 | 6.62918 | 2038 ft | 182 kts | 52° |
| 2026-05-05 15:23 | 51.22840 | 6.64458 | 1841 ft | 165 kts | 52° |
| 2026-05-05 15:23 | 51.23516 | 6.65873 | 1622 ft | 157 kts | 52° |
| 2026-05-05 15:23 | 51.24169 | 6.67241 | 1417 ft | 154 kts | 51° |
| 2026-05-05 15:24 | 51.24810 | 6.68592 | 1207 ft | 153 kts | 51° |
| 2026-05-05 15:24 | 51.25456 | 6.69946 | 1007 ft | 153 kts | 51° |
| 2026-05-05 15:24 | 51.26095 | 6.71284 | 797 ft | 151 kts | 51° |
| 2026-05-05 15:24 | 51.26734 | 6.72619 | 598 ft | 151 kts | 51° |
| 2026-05-05 15:25 | 51.27371 | 6.73958 | 409 ft | 151 kts | 52° |
| 2026-05-05 15:25 | 51.28007 | 6.75299 | 222 ft | 151 kts | 51° |
| 2026-05-05 15:25 | 51.28636 | 6.76603 | 122 ft | 140 kts | 52° |
| 2026-05-05 15:25 | 51.29066 | 6.77509 | 120 ft | 67 kts | 53° |
| 2026-05-05 15:26 | 51.29245 | 6.77887 | 120 ft | 34 kts | 53° |
| 2026-05-05 15:26 | 51.29299 | 6.78065 | 122 ft | 9 kts | 87° |
| 2026-05-05 15:26 | 51.29280 | 6.78164 | 121 ft | 10 kts | 126° |
| 2026-05-05 15:26 | 51.29220 | 6.78215 | 121 ft | 10 kts | 170° |
| 2026-05-05 15:27 | 51.29162 | 6.78178 | 119 ft | 9 kts | 218° |
| 2026-05-05 15:27 | 51.29123 | 6.78105 | 120 ft | 8 kts | 233° |
| 2026-05-05 15:27 | 51.29089 | 6.78032 | 120 ft | 8 kts | 233° |
| 2026-05-05 15:27 | 51.29056 | 6.77962 | 121 ft | 8 kts | 233° |
| 2026-05-05 15:28 | 51.29024 | 6.77896 | 121 ft | 7 kts | 233° |
| 2026-05-05 15:28 | 51.28969 | 6.77779 | 119 ft | 18 kts | 233° |
| 2026-05-05 15:28 | 51.28890 | 6.77613 | 120 ft | 19 kts | 233° |
| 2026-05-05 15:28 | 51.28812 | 6.77451 | 119 ft | 18 kts | 232° |
| 2026-05-05 15:29 | 51.28738 | 6.77295 | 118 ft | 17 kts | 233° |
| 2026-05-05 15:29 | 51.28667 | 6.77147 | 121 ft | 16 kts | 232° |
| 2026-05-05 15:29 | 51.28600 | 6.77006 | 119 ft | 16 kts | 233° |
| 2026-05-05 15:29 | 51.28534 | 6.76867 | 117 ft | 15 kts | 233° |
| 2026-05-05 15:30 | 51.28470 | 6.76734 | 117 ft | 15 kts | 233° |
| 2026-05-05 15:30 | 51.28411 | 6.76608 | 117 ft | 13 kts | 232° |
| 2026-05-05 15:30 | 51.28361 | 6.76505 | 120 ft | 10 kts | 232° |
| 2026-05-05 15:30 | 51.28358 | 6.76499 | 119 ft | 0 kts | 232° |
| 2026-05-05 15:31 | 51.28342 | 6.76464 | 120 ft | 10 kts | 232° |
| 2026-05-05 15:31 | 51.28274 | 6.76323 | 118 ft | 20 kts | 232° |
| 2026-05-05 15:31 | 51.28216 | 6.76223 | 120 ft | 4 kts | 200° |
| 2026-05-05 15:31 | 51.28188 | 6.76250 | 120 ft | 7 kts | 122° |
| 2026-05-05 15:32 | 51.28162 | 6.76305 | 120 ft | 6 kts | 133° |
| 2026-05-05 15:32 | 51.28136 | 6.76350 | 119 ft | 5 kts | 130° |
| 2026-05-05 15:32 | 51.28110 | 6.76395 | 119 ft | 6 kts | 137° |
| 2026-05-05 15:32 | 51.28071 | 6.76443 | 117 ft | 8 kts | 146° |
| 2026-05-05 15:33 | 51.28057 | 6.76453 | 120 ft | 0 kts | 174° |
| 2026-05-05 15:33 | 51.28054 | 6.76450 | 120 ft | 2 kts | 198° |
| 2026-05-05 15:33 | 51.28035 | 6.76435 | 120 ft | 1 kts | 207° |
| 2026-05-05 15:33 | 51.28019 | 6.76422 | 120 ft | 2 kts | 207° |
| 2026-05-05 15:34 | 51.28014 | 6.76418 | 120 ft | 0 kts | 207° |